createdAt,value
2022-09-12T00:00:55.474Z,6.00
2022-09-12T00:01:55.643Z,5.70
2022-09-12T00:02:55.451Z,6.10
2022-09-12T00:03:55.516Z,6.00
2022-09-12T00:04:55.441Z,6.20
2022-09-12T00:05:55.523Z,6.50
2022-09-12T00:06:55.394Z,6.90
2022-09-12T00:07:55.383Z,6.20
2022-09-12T00:08:55.354Z,6.60
2022-09-12T00:09:55.388Z,6.50
2022-09-12T00:10:55.367Z,6.10
2022-09-12T00:11:55.378Z,5.70
2022-09-12T00:12:55.329Z,6.10
2022-09-12T00:13:55.678Z,5.90
2022-09-12T00:14:55.320Z,5.80
2022-09-12T00:15:55.359Z,5.90
2022-09-12T00:16:55.297Z,6.30
2022-09-12T00:17:55.267Z,7.00
2022-09-12T00:18:55.326Z,7.40
2022-09-12T00:19:55.246Z,6.90
2022-09-12T00:20:55.226Z,6.70
2022-09-12T00:21:55.212Z,6.90
2022-09-12T00:22:55.217Z,7.10
2022-09-12T00:23:55.633Z,6.30
2022-09-12T00:24:55.194Z,6.30
2022-09-12T00:25:55.174Z,6.80
2022-09-12T00:26:55.175Z,6.90
2022-09-12T00:27:55.146Z,7.00
2022-09-12T00:28:55.150Z,7.20
2022-09-12T00:29:55.114Z,7.40
2022-09-12T00:30:55.137Z,7.40
2022-09-12T00:31:55.215Z,7.60
2022-09-12T00:32:55.097Z,7.80
2022-09-12T00:33:55.086Z,7.20
2022-09-12T00:34:55.319Z,7.40
2022-09-12T00:35:55.056Z,5.80
2022-09-12T00:36:55.045Z,5.90
2022-09-12T00:37:55.035Z,6.20
2022-09-12T00:38:55.058Z,6.60
2022-09-12T00:39:55.032Z,6.70
2022-09-12T00:40:55.020Z,7.50
2022-09-12T00:41:54.998Z,7.40
2022-09-12T00:42:55.225Z,7.60
2022-09-12T00:43:54.978Z,7.40
2022-09-12T00:44:54.970Z,7.40
2022-09-12T00:45:54.985Z,7.20
2022-09-12T00:46:54.936Z,7.40
2022-09-12T00:47:54.948Z,7.10
2022-09-12T00:48:54.927Z,7.00
2022-09-12T00:49:54.915Z,6.70
2022-09-12T00:50:54.908Z,6.90
2022-09-12T00:51:54.888Z,6.90
2022-09-12T00:52:54.887Z,6.90
2022-09-12T00:53:54.893Z,7.20
2022-09-12T00:54:54.857Z,7.50
2022-09-12T00:55:54.824Z,7.10
2022-09-12T00:56:54.845Z,7.50
2022-09-12T00:57:54.826Z,7.40
2022-09-12T00:58:54.813Z,7.40
2022-09-12T00:59:54.796Z,7.30
2022-09-12T01:00:54.863Z,7.40
2022-09-12T01:01:54.918Z,7.60
2022-09-12T01:02:54.776Z,7.80
2022-09-12T01:03:54.753Z,7.80
2022-09-12T01:04:54.732Z,8.10
2022-09-12T01:05:54.748Z,8.40
2022-09-12T01:06:54.727Z,8.70
2022-09-12T01:07:54.709Z,8.80
2022-09-12T01:08:54.713Z,8.60
2022-09-12T01:09:54.692Z,9.00
2022-09-12T01:10:54.709Z,8.90
2022-09-12T01:11:54.667Z,8.80
2022-09-12T01:12:54.667Z,8.30
2022-09-12T01:13:54.651Z,8.10
2022-09-12T01:14:54.634Z,7.70
2022-09-12T01:15:54.612Z,7.70
2022-09-12T01:16:54.604Z,8.00
2022-09-12T01:17:54.607Z,7.40
2022-09-12T01:18:54.594Z,7.10
2022-09-12T01:19:54.589Z,6.80
2022-09-12T01:20:54.556Z,6.30
2022-09-12T01:21:54.545Z,6.10
2022-09-12T01:22:54.556Z,6.50
2022-09-12T01:23:54.696Z,6.20
2022-09-12T01:24:54.540Z,6.90
2022-09-12T01:25:54.655Z,7.60
2022-09-12T01:26:54.494Z,7.50
2022-09-12T01:27:54.506Z,7.50
2022-09-12T01:28:54.483Z,7.10
2022-09-12T01:29:54.489Z,6.80
2022-09-12T01:30:54.448Z,6.90
2022-09-12T01:31:54.478Z,6.60
2022-09-12T01:32:54.438Z,6.60
2022-09-12T01:33:54.432Z,6.50
2022-09-12T01:34:54.418Z,5.90
2022-09-12T01:35:54.416Z,6.10
2022-09-12T01:36:54.384Z,6.40
2022-09-12T01:37:54.387Z,5.90
2022-09-12T01:38:54.374Z,5.90
2022-09-12T01:39:54.398Z,6.30
2022-09-12T01:41:01.394Z,6.10
2022-09-12T01:41:57.119Z,6.40
2022-09-12T01:42:54.314Z,6.10
2022-09-12T01:43:54.312Z,6.20
2022-09-12T01:44:54.308Z,6.30
2022-09-12T01:45:54.356Z,6.20
2022-09-12T01:46:54.287Z,6.30
2022-09-12T01:47:54.273Z,6.60
2022-09-12T01:48:54.252Z,6.50
2022-09-12T01:49:54.254Z,6.50
2022-09-12T01:50:54.222Z,7.20
2022-09-12T01:51:54.246Z,6.80
2022-09-12T01:52:54.238Z,6.50
2022-09-12T01:53:54.207Z,6.50
2022-09-12T01:54:54.196Z,6.70
2022-09-12T01:55:54.203Z,7.00
2022-09-12T01:56:54.170Z,7.90
2022-09-12T01:57:54.172Z,7.80
2022-09-12T01:58:54.173Z,6.90
2022-09-12T01:59:54.205Z,6.20
2022-09-12T02:00:54.197Z,6.00
2022-09-12T02:01:54.174Z,6.10
2022-09-12T02:02:54.122Z,6.10
2022-09-12T02:03:54.110Z,6.20
2022-09-12T02:04:54.071Z,6.10
2022-09-12T02:05:54.072Z,6.50
2022-09-12T02:06:54.065Z,6.10
2022-09-12T02:07:54.051Z,6.00
2022-09-12T02:08:54.056Z,6.20
2022-09-12T02:09:54.026Z,6.60
2022-09-12T02:10:54.024Z,6.50
2022-09-12T02:11:54.034Z,6.10
2022-09-12T02:12:54.022Z,6.10
2022-09-12T02:13:54.024Z,6.20
2022-09-12T02:14:53.966Z,6.10
2022-09-12T02:15:53.965Z,6.00
2022-09-12T02:16:53.950Z,6.20
2022-09-12T02:17:53.951Z,6.20
2022-09-12T02:18:53.939Z,6.50
2022-09-12T02:19:53.948Z,6.40
2022-09-12T02:20:53.915Z,6.00
2022-09-12T02:21:53.899Z,6.00
2022-09-12T02:22:53.891Z,6.10
2022-09-12T02:23:53.895Z,6.20
2022-09-12T02:24:53.864Z,6.30
2022-09-12T02:25:53.886Z,6.40
2022-09-12T02:26:53.844Z,6.20
2022-09-12T02:27:53.856Z,6.30
2022-09-12T02:28:53.831Z,6.40
2022-09-12T02:29:53.799Z,6.30
2022-09-12T02:30:53.852Z,6.40
2022-09-12T02:31:53.803Z,6.30
2022-09-12T02:32:53.778Z,6.10
2022-09-12T02:33:53.790Z,6.00
2022-09-12T02:34:53.770Z,6.60
2022-09-12T02:35:53.761Z,7.00
2022-09-12T02:36:53.755Z,7.00
2022-09-12T02:37:53.722Z,7.30
2022-09-12T02:38:53.720Z,7.10
2022-09-12T02:39:53.804Z,7.20
2022-09-12T02:40:53.680Z,7.30
2022-09-12T02:41:53.683Z,7.00
2022-09-12T02:42:53.663Z,6.40
2022-09-12T02:43:53.675Z,6.40
2022-09-12T02:44:53.651Z,6.00
2022-09-12T02:45:53.711Z,5.80
2022-09-12T02:46:53.632Z,5.40
2022-09-12T02:47:53.613Z,5.50
2022-09-12T02:48:53.616Z,5.20
2022-09-12T02:49:53.593Z,5.10
2022-09-12T02:50:53.592Z,5.70
2022-09-12T02:51:53.572Z,5.70
2022-09-12T02:52:53.549Z,5.90
2022-09-12T02:53:53.553Z,5.90
2022-09-12T02:54:53.541Z,6.10
2022-09-12T02:55:53.538Z,6.20
2022-09-12T02:56:53.536Z,6.00
2022-09-12T02:57:53.513Z,6.30
2022-09-12T02:58:53.498Z,6.20
2022-09-12T02:59:53.501Z,5.60
2022-09-12T03:00:53.494Z,5.60
2022-09-12T03:01:53.536Z,5.40
2022-09-12T03:02:53.440Z,5.40
2022-09-12T03:03:53.442Z,5.50
2022-09-12T03:04:53.432Z,5.20
2022-09-12T03:05:53.410Z,5.40
2022-09-12T03:06:53.398Z,5.50
2022-09-12T03:07:53.389Z,5.80
2022-09-12T03:08:53.400Z,6.00
2022-09-12T03:09:53.370Z,6.30
2022-09-12T03:10:53.349Z,6.20
2022-09-12T03:11:53.382Z,6.40
2022-09-12T03:12:53.356Z,6.70
2022-09-12T03:13:53.331Z,6.70
2022-09-12T03:14:53.322Z,6.90
2022-09-12T03:15:53.298Z,7.20
2022-09-12T03:16:53.288Z,7.30
2022-09-12T03:17:53.303Z,6.80
2022-09-12T03:18:53.334Z,7.00
2022-09-12T03:19:53.291Z,7.10
2022-09-12T03:20:53.251Z,6.80
2022-09-12T03:21:53.284Z,7.00
2022-09-12T03:22:53.208Z,7.00
2022-09-12T03:23:53.221Z,7.10
2022-09-12T03:24:53.227Z,7.10
2022-09-12T03:25:53.226Z,7.40
2022-09-12T03:26:53.187Z,7.10
2022-09-12T03:27:53.183Z,6.90
2022-09-12T03:28:53.169Z,6.20
2022-09-12T03:29:53.170Z,5.70
2022-09-12T03:30:53.162Z,6.00
2022-09-12T03:31:53.142Z,6.20
2022-09-12T03:32:53.121Z,6.20
2022-09-12T03:33:53.098Z,6.60
2022-09-12T03:34:53.111Z,6.60
2022-09-12T03:35:53.101Z,6.40
2022-09-12T03:36:53.066Z,6.60
2022-09-12T03:37:53.057Z,6.70
2022-09-12T03:38:53.052Z,6.80
2022-09-12T03:39:53.096Z,7.00
2022-09-12T03:40:54.983Z,6.90
2022-09-12T03:41:53.019Z,7.40
2022-09-12T03:42:52.996Z,7.30
2022-09-12T03:43:53.013Z,7.40
2022-09-12T03:44:53.052Z,7.20
2022-09-12T03:45:53.076Z,7.40
2022-09-12T03:46:52.985Z,6.90
2022-09-12T03:47:52.979Z,7.00
2022-09-12T03:48:52.944Z,7.10
2022-09-12T03:49:52.930Z,7.10
2022-09-12T03:50:52.962Z,6.90
2022-09-12T03:51:52.930Z,6.60
2022-09-12T03:52:52.920Z,6.80
2022-09-12T03:53:52.899Z,6.90
2022-09-12T03:54:52.893Z,6.80
2022-09-12T03:55:52.892Z,6.50
2022-09-12T03:56:52.855Z,6.50
2022-09-12T03:57:52.880Z,6.60
2022-09-12T03:58:52.849Z,6.80
2022-09-12T03:59:52.815Z,6.60
2022-09-12T04:00:52.890Z,6.40
2022-09-12T04:01:52.822Z,7.10
2022-09-12T04:02:52.833Z,7.00
2022-09-12T04:03:52.805Z,7.30
2022-09-12T04:04:52.755Z,6.60
2022-09-12T04:05:52.770Z,7.20
2022-09-12T04:06:52.763Z,7.50
2022-09-12T04:07:52.815Z,7.60
2022-09-12T04:08:52.719Z,7.10
2022-09-12T04:09:52.714Z,7.10
2022-09-12T04:10:52.764Z,5.60
2022-09-12T04:11:52.690Z,5.50
2022-09-12T04:12:52.689Z,5.50
2022-09-12T04:13:52.699Z,5.50
2022-09-12T04:14:52.667Z,5.90
2022-09-12T04:15:52.637Z,6.30
2022-09-12T04:16:52.689Z,6.10
2022-09-12T04:17:52.638Z,6.10
2022-09-12T04:18:52.624Z,6.20
2022-09-12T04:19:52.620Z,6.30
2022-09-12T04:20:52.598Z,5.80
2022-09-12T04:21:52.600Z,6.10
2022-09-12T04:22:52.559Z,5.80
2022-09-12T04:23:52.554Z,5.50
2022-09-12T04:24:52.568Z,6.30
2022-09-12T04:25:52.526Z,5.60
2022-09-12T04:26:52.549Z,6.90
2022-09-12T04:27:52.504Z,6.10
2022-09-12T04:28:52.494Z,6.40
2022-09-12T04:29:52.515Z,6.40
2022-09-12T04:30:52.540Z,6.30
2022-09-12T04:31:52.478Z,6.40
2022-09-12T04:32:52.444Z,6.50
2022-09-12T04:33:52.478Z,6.60
2022-09-12T04:34:52.441Z,8.10
2022-09-12T04:35:52.458Z,8.10
2022-09-12T04:36:52.435Z,8.20
2022-09-12T04:37:52.396Z,7.10
2022-09-12T04:38:52.395Z,6.70
2022-09-12T04:39:52.406Z,6.30
2022-09-12T04:40:52.362Z,6.30
2022-09-12T04:41:52.375Z,7.30
2022-09-12T04:42:52.334Z,7.70
2022-09-12T04:43:52.333Z,7.80
2022-09-12T04:44:52.327Z,8.00
2022-09-12T04:45:52.401Z,7.70
2022-09-12T04:46:52.333Z,7.20
2022-09-12T04:47:52.283Z,7.40
2022-09-12T04:48:56.499Z,6.40
2022-09-12T04:49:52.272Z,6.00
2022-09-12T04:50:52.256Z,5.40
2022-09-12T04:51:52.244Z,5.80
2022-09-12T04:52:52.253Z,5.70
2022-09-12T04:53:52.251Z,5.80
2022-09-12T04:54:52.219Z,5.80
2022-09-12T04:55:52.206Z,6.10
2022-09-12T04:56:52.234Z,6.00
2022-09-12T04:57:52.197Z,5.50
2022-09-12T04:58:52.178Z,5.40
2022-09-12T04:59:52.199Z,5.20
2022-09-12T05:00:52.165Z,5.20
2022-09-12T05:01:52.168Z,5.20
2022-09-12T05:02:52.123Z,5.60
2022-09-12T05:03:52.125Z,5.10
2022-09-12T05:04:52.116Z,5.20
2022-09-12T05:05:56.257Z,5.60
2022-09-12T05:06:52.090Z,5.60
2022-09-12T05:07:52.084Z,5.50
2022-09-12T05:08:52.074Z,5.70
2022-09-12T05:09:52.096Z,5.60
2022-09-12T05:10:52.040Z,5.60
2022-09-12T05:12:07.381Z,5.90
2022-09-12T05:12:53.030Z,5.50
2022-09-12T05:13:52.021Z,5.80
2022-09-12T05:14:52.014Z,5.80
2022-09-12T05:15:52.051Z,5.70
2022-09-12T05:16:52.049Z,5.50
2022-09-12T05:17:51.971Z,6.20
2022-09-12T05:18:51.969Z,5.60
2022-09-12T05:19:52.010Z,6.10
2022-09-12T05:20:51.945Z,5.80
2022-09-12T05:21:51.971Z,5.40
2022-09-12T05:22:51.954Z,4.90
2022-09-12T05:23:51.930Z,5.10
2022-09-12T05:24:51.902Z,4.70
2022-09-12T05:25:51.909Z,4.70
2022-09-12T05:26:52.010Z,4.70
2022-09-12T05:27:51.905Z,4.60
2022-09-12T05:28:51.844Z,4.70
2022-09-12T05:29:51.867Z,4.60
2022-09-12T05:30:51.905Z,4.80
2022-09-12T05:31:51.843Z,4.50
2022-09-12T05:32:51.834Z,4.50
2022-09-12T05:33:51.781Z,4.50
2022-09-12T05:34:51.795Z,4.50
2022-09-12T05:35:51.760Z,4.60
2022-09-12T05:36:51.765Z,4.60
2022-09-12T05:37:51.755Z,4.40
2022-09-12T05:38:51.759Z,4.30
2022-09-12T05:39:51.810Z,4.40
2022-09-12T05:40:51.711Z,4.40
2022-09-12T05:41:51.693Z,5.00
2022-09-12T05:42:51.681Z,7.60
2022-09-12T05:43:51.685Z,7.20
2022-09-12T05:44:51.660Z,6.70
2022-09-12T05:45:51.752Z,6.60
2022-09-12T05:46:51.652Z,6.60
2022-09-12T05:47:51.628Z,7.00
2022-09-12T05:48:55.846Z,6.80
2022-09-12T05:49:51.613Z,7.70
2022-09-12T05:50:51.603Z,8.00
2022-09-12T05:51:51.595Z,8.20
2022-09-12T05:52:51.599Z,8.60
2022-09-12T05:53:51.573Z,8.80
2022-09-12T05:54:51.550Z,8.60
2022-09-12T05:55:51.530Z,7.90
2022-09-12T05:56:51.551Z,7.50
2022-09-12T05:57:51.518Z,7.10
2022-09-12T05:58:51.528Z,6.60
2022-09-12T05:59:51.508Z,6.70
2022-09-12T06:00:51.488Z,6.80
2022-09-12T06:01:51.495Z,6.70
2022-09-12T06:02:51.503Z,7.10
2022-09-12T06:03:51.449Z,7.10
2022-09-12T06:04:51.483Z,6.30
2022-09-12T06:05:51.450Z,6.00
2022-09-12T06:06:51.450Z,6.40
2022-09-12T06:07:51.433Z,7.00
2022-09-12T06:08:51.445Z,7.30
2022-09-12T06:09:51.410Z,7.60
2022-09-12T06:10:51.392Z,7.10
2022-09-12T06:11:51.410Z,7.20
2022-09-12T06:12:51.371Z,7.20
2022-09-12T06:13:51.360Z,7.00
2022-09-12T06:14:51.353Z,6.50
2022-09-12T06:15:51.332Z,6.00
2022-09-12T06:16:51.383Z,5.90
2022-09-12T06:17:51.566Z,5.70
2022-09-12T06:18:51.373Z,5.70
2022-09-12T06:19:51.301Z,5.50
2022-09-12T06:20:51.278Z,5.40
2022-09-12T06:21:51.292Z,6.10
2022-09-12T06:22:51.262Z,6.90
2022-09-12T06:23:51.256Z,7.00
2022-09-12T06:24:53.765Z,6.90
2022-09-12T06:25:52.218Z,6.90
2022-09-12T06:26:51.222Z,6.20
2022-09-12T06:27:51.212Z,6.20
2022-09-12T06:28:51.199Z,5.90
2022-09-12T06:29:51.192Z,5.50
2022-09-12T06:30:51.195Z,5.80
2022-09-12T06:31:51.209Z,5.80
2022-09-12T06:32:51.181Z,5.70
2022-09-12T06:33:51.132Z,5.90
2022-09-12T06:34:51.138Z,5.90
2022-09-12T06:35:51.116Z,5.80
2022-09-12T06:36:51.097Z,5.90
2022-09-12T06:37:51.112Z,5.90
2022-09-12T06:38:51.089Z,6.20
2022-09-12T06:39:51.103Z,5.90
2022-09-12T06:40:51.067Z,6.30
2022-09-12T06:41:51.057Z,6.70
2022-09-12T06:42:51.051Z,6.60
2022-09-12T06:43:51.053Z,6.60
2022-09-12T06:44:51.037Z,6.70
2022-09-12T06:45:51.083Z,6.20
2022-09-12T06:46:51.021Z,6.00
2022-09-12T06:47:50.994Z,5.90
2022-09-12T06:48:50.983Z,6.00
2022-09-12T06:49:50.983Z,6.10
2022-09-12T06:50:50.948Z,5.90
2022-09-12T06:51:50.960Z,6.20
2022-09-12T06:52:50.938Z,6.70
2022-09-12T06:53:50.917Z,7.30
2022-09-12T06:54:50.969Z,7.70
2022-09-12T06:55:50.892Z,7.10
2022-09-12T06:56:50.876Z,7.60
2022-09-12T06:57:50.875Z,7.90
2022-09-12T06:58:50.881Z,8.70
2022-09-12T06:59:50.894Z,9.40
2022-09-12T07:00:50.848Z,8.70
2022-09-12T07:01:50.854Z,8.30
2022-09-12T07:02:50.884Z,7.70
2022-09-12T07:03:50.807Z,8.10
2022-09-12T07:04:50.821Z,7.10
2022-09-12T07:05:50.800Z,7.00
2022-09-12T07:06:50.803Z,7.30
2022-09-12T07:07:50.804Z,7.00
2022-09-12T07:08:50.754Z,6.80
2022-09-12T07:09:50.781Z,6.60
2022-09-12T07:10:50.769Z,6.10
2022-09-12T07:11:50.779Z,6.30
2022-09-12T07:12:50.735Z,6.10
2022-09-12T07:13:50.717Z,5.90
2022-09-12T07:14:50.733Z,5.80
2022-09-12T07:15:50.675Z,5.90
2022-09-12T07:16:50.776Z,6.50
2022-09-12T07:17:50.708Z,6.60
2022-09-12T07:18:50.665Z,6.30
2022-09-12T07:19:50.651Z,6.50
2022-09-12T07:20:50.635Z,6.80
2022-09-12T07:21:53.247Z,7.10
2022-09-12T07:22:50.623Z,7.10
2022-09-12T07:23:50.575Z,7.20
2022-09-12T07:24:50.586Z,8.00
2022-09-12T07:25:50.579Z,8.40
2022-09-12T07:26:50.555Z,8.90
2022-09-12T07:27:51.314Z,9.70
2022-09-12T07:28:50.539Z,10.10
2022-09-12T07:29:50.514Z,7.90
2022-09-12T07:30:50.574Z,7.50
2022-09-12T07:31:50.553Z,8.30
2022-09-12T07:32:50.548Z,7.80
2022-09-12T07:33:54.303Z,7.00
2022-09-12T07:34:50.530Z,5.90
2022-09-12T07:35:50.466Z,6.30
2022-09-12T07:36:50.448Z,6.30
2022-09-12T07:37:50.506Z,6.50
2022-09-12T07:38:51.063Z,6.60
2022-09-12T07:39:50.479Z,6.80
2022-09-12T07:40:50.429Z,6.70
2022-09-12T07:41:50.408Z,7.50
2022-09-12T07:42:50.377Z,7.30
2022-09-12T07:43:50.410Z,6.40
2022-09-12T07:44:50.408Z,6.60
2022-09-12T07:45:50.371Z,5.60
2022-09-12T07:46:50.335Z,5.90
2022-09-12T07:47:50.325Z,6.00
2022-09-12T07:48:50.314Z,5.70
2022-09-12T07:49:50.328Z,5.90
2022-09-12T07:50:50.309Z,6.20
2022-09-12T07:51:50.273Z,6.60
2022-09-12T07:52:50.278Z,6.60
2022-09-12T07:53:50.297Z,6.40
2022-09-12T07:54:50.263Z,6.60
2022-09-12T07:55:50.263Z,6.50
2022-09-12T07:56:50.268Z,6.70
2022-09-12T07:57:50.246Z,7.10
2022-09-12T07:58:50.226Z,7.10
2022-09-12T07:59:52.913Z,7.00
2022-09-12T08:00:50.223Z,7.00
2022-09-12T08:01:50.416Z,6.90
2022-09-12T08:02:50.228Z,7.00
2022-09-12T08:03:50.148Z,7.00
2022-09-12T08:04:50.137Z,7.70
2022-09-12T08:05:50.136Z,7.40
2022-09-12T08:06:50.159Z,7.50
2022-09-12T08:07:51.309Z,8.20
2022-09-12T08:08:50.116Z,8.30
2022-09-12T08:09:50.131Z,7.60
2022-09-12T08:10:50.072Z,7.00
2022-09-12T08:11:50.064Z,6.60
2022-09-12T08:12:50.043Z,5.80
2022-09-12T08:13:54.813Z,7.10
2022-09-12T08:14:51.087Z,8.20
2022-09-12T08:15:50.053Z,8.20
2022-09-12T08:16:50.061Z,7.70
2022-09-12T08:17:49.993Z,8.00
2022-09-12T08:18:50.007Z,7.90
2022-09-12T08:19:50.315Z,7.70
2022-09-12T08:20:49.977Z,8.50
2022-09-12T08:21:49.956Z,8.70
2022-09-12T08:22:49.954Z,8.70
2022-09-12T08:23:50.317Z,8.40
2022-09-12T08:24:49.931Z,8.40
2022-09-12T08:25:49.916Z,7.90
2022-09-12T08:26:49.901Z,8.50
2022-09-12T08:27:49.896Z,8.50
2022-09-12T08:28:49.891Z,7.80
2022-09-12T08:29:49.922Z,8.40
2022-09-12T08:30:49.960Z,9.60
2022-09-12T08:31:53.938Z,9.10
2022-09-12T08:32:50.910Z,9.40
2022-09-12T08:33:49.816Z,8.80
2022-09-12T08:34:49.855Z,7.60
2022-09-12T08:35:49.839Z,6.90
2022-09-12T08:36:49.806Z,7.40
2022-09-12T08:37:49.796Z,8.80
2022-09-12T08:38:49.772Z,8.80
2022-09-12T08:39:49.913Z,8.90
2022-09-12T08:40:49.796Z,8.80
2022-09-12T08:41:49.744Z,8.80
2022-09-12T08:42:49.759Z,9.00
2022-09-12T08:43:52.049Z,8.30
2022-09-12T08:44:49.724Z,8.20
2022-09-12T08:45:49.723Z,7.90
2022-09-12T08:46:49.732Z,7.90
2022-09-12T08:47:49.922Z,8.20
2022-09-12T08:48:49.662Z,8.70
2022-09-12T08:49:49.675Z,7.70
2022-09-12T08:50:50.138Z,7.70
2022-09-12T08:51:49.643Z,6.60
2022-09-12T08:52:49.682Z,6.50
2022-09-12T08:53:49.650Z,6.50
2022-09-12T08:54:49.611Z,6.40
2022-09-12T08:55:49.603Z,6.40
2022-09-12T08:56:49.593Z,6.20
2022-09-12T08:57:49.611Z,5.80
2022-09-12T08:58:49.657Z,5.80
2022-09-12T08:59:49.554Z,6.10
2022-09-12T09:00:49.616Z,5.90
2022-09-12T09:01:50.030Z,6.70
2022-09-12T09:02:49.656Z,6.60
2022-09-12T09:03:49.480Z,6.80
2022-09-12T09:04:50.041Z,6.70
2022-09-12T09:05:49.661Z,6.30
2022-09-12T09:06:49.546Z,6.70
2022-09-12T09:07:49.465Z,6.80
2022-09-12T09:08:49.450Z,6.80
2022-09-12T09:09:49.433Z,7.00
2022-09-12T09:10:49.428Z,6.80
2022-09-12T09:11:49.439Z,7.20
2022-09-12T09:12:49.446Z,7.20
2022-09-12T09:13:49.397Z,7.70
2022-09-12T09:14:49.615Z,7.90
2022-09-12T09:15:49.413Z,9.50
2022-09-12T09:16:49.433Z,9.10
2022-09-12T09:17:49.414Z,8.20
2022-09-12T09:18:49.390Z,7.80
2022-09-12T09:19:50.915Z,6.00
2022-09-12T09:20:49.314Z,6.10
2022-09-12T09:21:49.299Z,7.20
2022-09-12T09:22:49.302Z,7.20
2022-09-12T09:23:49.274Z,6.80
2022-09-12T09:24:49.306Z,6.90
2022-09-12T09:25:49.474Z,6.60
2022-09-12T09:26:49.253Z,6.50
2022-09-12T09:27:50.233Z,6.30
2022-09-12T09:28:49.255Z,6.20
2022-09-12T09:29:49.225Z,6.10
2022-09-12T09:30:49.282Z,5.90
2022-09-12T09:31:49.233Z,6.60
2022-09-12T09:32:49.412Z,6.50
2022-09-12T09:33:49.191Z,6.00
2022-09-12T09:34:49.252Z,5.90
2022-09-12T09:35:49.200Z,6.40
2022-09-12T09:36:49.141Z,6.70
2022-09-12T09:37:49.134Z,7.10
2022-09-12T09:38:49.163Z,6.60
2022-09-12T09:39:49.162Z,6.30
2022-09-12T09:40:50.938Z,6.30
2022-09-12T09:41:49.088Z,6.20
2022-09-12T09:42:49.084Z,6.50
2022-09-12T09:43:49.132Z,6.50
2022-09-12T09:44:49.165Z,6.20
2022-09-12T09:45:49.095Z,5.70
2022-09-12T09:46:49.043Z,6.00
2022-09-12T09:47:49.007Z,5.70
2022-09-12T09:48:49.327Z,5.60
2022-09-12T09:49:49.276Z,5.70
2022-09-12T09:50:49.005Z,5.80
2022-09-12T09:51:49.022Z,5.60
2022-09-12T09:52:48.984Z,5.70
2022-09-12T09:53:48.982Z,6.00
2022-09-12T09:54:48.986Z,5.50
2022-09-12T09:55:48.927Z,5.40
2022-09-12T09:56:48.915Z,6.30
2022-09-12T09:57:48.931Z,5.90
2022-09-12T09:58:49.147Z,5.90
2022-09-12T09:59:48.877Z,5.90
2022-09-12T10:00:50.364Z,6.50
2022-09-12T10:01:48.893Z,6.20
2022-09-12T10:02:48.910Z,6.80
2022-09-12T10:03:48.851Z,7.30
2022-09-12T10:04:48.865Z,7.30
2022-09-12T10:05:48.826Z,6.40
2022-09-12T10:06:48.812Z,6.70
2022-09-12T10:07:48.823Z,6.70
2022-09-12T10:08:48.779Z,5.90
2022-09-12T10:09:48.767Z,6.20
2022-09-12T10:10:48.768Z,10.20
2022-09-12T10:11:48.748Z,8.30
2022-09-12T10:12:48.729Z,7.70
2022-09-12T10:13:48.729Z,8.00
2022-09-12T10:14:48.715Z,8.40
2022-09-12T10:15:48.775Z,7.90
2022-09-12T10:16:48.724Z,8.50
2022-09-12T10:17:48.719Z,8.80
2022-09-12T10:18:48.673Z,7.80
2022-09-12T10:20:04.586Z,8.10
2022-09-12T10:20:49.658Z,7.90
2022-09-12T10:21:48.656Z,7.20
2022-09-12T10:22:48.651Z,7.70
2022-09-12T10:23:48.706Z,6.90
2022-09-12T10:24:48.612Z,5.70
2022-09-12T10:25:48.609Z,5.10
2022-09-12T10:26:48.579Z,6.30
2022-09-12T10:27:48.620Z,5.90
2022-09-12T10:28:48.576Z,6.40
2022-09-12T10:29:48.588Z,5.60
2022-09-12T10:30:49.814Z,5.80
2022-09-12T10:31:48.540Z,6.80
2022-09-12T10:32:48.559Z,7.40
2022-09-12T10:33:48.614Z,8.10
2022-09-12T10:34:48.506Z,8.50
2022-09-12T10:35:48.573Z,8.30
2022-09-12T10:36:48.456Z,7.70
2022-09-12T10:37:52.223Z,7.20
2022-09-12T10:38:48.436Z,6.90
2022-09-12T10:39:48.749Z,8.30
2022-09-12T10:40:48.441Z,10.30
2022-09-12T10:41:48.407Z,7.80
2022-09-12T10:42:48.426Z,8.50
2022-09-12T10:43:48.459Z,6.50
2022-09-12T10:44:48.408Z,5.80
2022-09-12T10:45:55.437Z,5.20
2022-09-12T10:46:48.374Z,5.00
2022-09-12T10:47:51.019Z,7.50
2022-09-12T10:48:48.340Z,5.80
2022-09-12T10:49:48.425Z,6.20
2022-09-12T10:50:48.343Z,7.20
2022-09-12T10:51:48.334Z,6.70
2022-09-12T10:52:48.439Z,6.50
2022-09-12T10:53:48.416Z,6.70
2022-09-12T10:54:48.793Z,6.60
2022-09-12T10:55:48.262Z,7.30
2022-09-12T10:56:48.241Z,8.80
2022-09-12T10:57:48.240Z,7.70
2022-09-12T10:58:48.633Z,7.70
2022-09-12T10:59:48.311Z,8.40
2022-09-12T11:00:48.200Z,7.80
2022-09-12T11:01:48.366Z,7.70
2022-09-12T11:02:48.296Z,7.60
2022-09-12T11:03:48.437Z,8.40
2022-09-12T11:04:48.157Z,5.70
2022-09-12T11:05:48.168Z,5.10
2022-09-12T11:06:48.140Z,5.10
2022-09-12T11:07:48.191Z,5.90
2022-09-12T11:08:48.134Z,5.30
2022-09-12T11:09:48.350Z,6.10
2022-09-12T11:10:48.094Z,5.80
2022-09-12T11:11:48.112Z,5.90
2022-09-12T11:12:48.094Z,5.80
2022-09-12T11:13:48.308Z,7.20
2022-09-12T11:14:48.084Z,6.20
2022-09-12T11:15:48.126Z,6.10
2022-09-12T11:16:48.049Z,4.90
2022-09-12T11:17:48.018Z,4.50
2022-09-12T11:18:48.022Z,4.70
2022-09-12T11:19:48.024Z,7.00
2022-09-12T11:20:47.984Z,5.80
2022-09-12T11:21:47.970Z,5.30
2022-09-12T11:22:47.963Z,5.00
2022-09-12T11:23:48.027Z,4.60
2022-09-12T11:24:47.961Z,5.20
2022-09-12T11:25:47.950Z,5.30
2022-09-12T11:26:47.924Z,6.00
2022-09-12T11:27:47.923Z,5.00
2022-09-12T11:28:48.839Z,5.30
2022-09-12T11:29:47.901Z,6.30
2022-09-12T11:30:47.944Z,6.10
2022-09-12T11:31:47.873Z,5.60
2022-09-12T11:32:47.853Z,5.40
2022-09-12T11:33:48.071Z,5.30
2022-09-12T11:34:47.830Z,5.70
2022-09-12T11:35:49.784Z,5.80
2022-09-12T11:36:48.840Z,5.60
2022-09-12T11:37:47.821Z,5.20
2022-09-12T11:38:47.955Z,5.60
2022-09-12T11:39:49.642Z,5.50
2022-09-12T11:40:47.779Z,5.50
2022-09-12T11:41:47.762Z,5.00
2022-09-12T11:42:47.761Z,5.50
2022-09-12T11:43:47.823Z,5.30
2022-09-12T11:44:48.018Z,6.10
2022-09-12T11:45:47.770Z,6.20
2022-09-12T11:46:51.546Z,5.70
2022-09-12T11:47:47.802Z,7.20
2022-09-12T11:48:47.808Z,6.00
2022-09-12T11:49:47.668Z,8.90
2022-09-12T11:50:47.702Z,9.10
2022-09-12T11:51:47.682Z,12.50
2022-09-12T11:52:47.681Z,10.80
2022-09-12T11:53:47.729Z,10.80
2022-09-12T11:54:52.812Z,7.40
2022-09-12T11:55:48.622Z,6.20
2022-09-12T11:56:47.600Z,5.30
2022-09-12T11:57:47.579Z,6.40
2022-09-12T11:58:47.717Z,5.70
2022-09-12T11:59:47.558Z,5.60
2022-09-12T12:00:47.553Z,6.00
2022-09-12T12:01:48.636Z,5.60
2022-09-12T12:02:47.594Z,6.90
2022-09-12T12:03:47.567Z,6.10
2022-09-12T12:04:47.511Z,5.60
2022-09-12T12:05:47.508Z,5.70
2022-09-12T12:06:47.497Z,5.40
2022-09-12T12:07:47.502Z,5.30
2022-09-12T12:08:48.591Z,5.70
2022-09-12T12:09:47.461Z,6.10
2022-09-12T12:10:47.544Z,8.20
2022-09-12T12:11:47.463Z,7.40
2022-09-12T12:12:47.430Z,7.30
2022-09-12T12:13:47.421Z,6.80
2022-09-12T12:14:47.401Z,7.10
2022-09-12T12:15:47.424Z,7.70
2022-09-12T12:16:47.382Z,8.20
2022-09-12T12:17:47.384Z,7.80
2022-09-12T12:18:47.529Z,7.40
2022-09-12T12:19:47.353Z,6.80
2022-09-12T12:20:47.328Z,6.40
2022-09-12T12:21:47.328Z,7.00
2022-09-12T12:22:47.321Z,9.60
2022-09-12T12:23:47.434Z,7.80
2022-09-12T12:24:47.310Z,7.10
2022-09-12T12:25:47.290Z,5.40
2022-09-12T12:26:47.272Z,5.80
2022-09-12T12:27:47.268Z,5.80
2022-09-12T12:28:47.477Z,5.50
2022-09-12T12:29:47.273Z,5.70
2022-09-12T12:30:47.285Z,6.80
2022-09-12T12:31:47.237Z,6.00
2022-09-12T12:32:47.223Z,5.70
2022-09-12T12:33:47.221Z,5.20
2022-09-12T12:34:47.229Z,4.90
2022-09-12T12:35:47.188Z,5.20
2022-09-12T12:36:47.160Z,4.90
2022-09-12T12:37:47.202Z,5.10
2022-09-12T12:38:47.307Z,5.40
2022-09-12T12:39:47.204Z,5.20
2022-09-12T12:40:47.133Z,5.20
2022-09-12T12:41:47.365Z,5.20
2022-09-12T12:42:47.121Z,5.10
2022-09-12T12:43:47.286Z,5.40
2022-09-12T12:44:47.092Z,6.20
2022-09-12T12:45:47.080Z,5.20
2022-09-12T12:46:47.050Z,6.00
2022-09-12T12:47:47.739Z,5.60
2022-09-12T12:48:47.057Z,5.80
2022-09-12T12:49:47.020Z,7.00
2022-09-12T12:50:47.009Z,7.10
2022-09-12T12:51:47.029Z,4.80
2022-09-12T12:52:46.986Z,6.80
2022-09-12T12:53:47.076Z,6.50
2022-09-12T12:54:46.957Z,6.10
2022-09-12T12:55:46.992Z,5.00
2022-09-12T12:56:46.926Z,5.20
2022-09-12T12:57:46.980Z,5.10
2022-09-12T12:58:46.921Z,5.60
2022-09-12T12:59:46.935Z,5.80
2022-09-12T13:00:46.895Z,6.30
2022-09-12T13:01:49.516Z,3.90
2022-09-12T13:02:47.931Z,4.10
2022-09-12T13:03:46.935Z,4.50
2022-09-12T13:04:47.504Z,4.60
2022-09-12T13:05:46.918Z,5.10
2022-09-12T13:06:47.582Z,5.60
2022-09-12T13:07:46.815Z,6.00
2022-09-12T13:08:46.943Z,6.40
2022-09-12T13:09:46.792Z,6.80
2022-09-12T13:10:48.539Z,5.90
2022-09-12T13:11:46.764Z,6.10
2022-09-12T13:12:46.779Z,5.40
2022-09-12T13:13:46.769Z,5.80
2022-09-12T13:14:46.805Z,6.10
2022-09-12T13:15:46.827Z,6.00
2022-09-12T13:16:46.749Z,6.00
2022-09-12T13:17:46.704Z,6.70
2022-09-12T13:18:46.836Z,6.20